Time;durP1;ratioP1;P1;durP2;ratioP2;P2;SDS_P1;SDS_P2;PMS_P1;PMS_P2;Temp;Humidity;BMP_temperature;BMP_pressure;BME280_temperature;BME280_humidity;BME280_pressure;Samples;Min_cycle;Max_cycle;Signal;HPM_P1;HPM_P2
2023/12/07 00:00:02;;;;;;;18.03;9.80;;;4.40;1.00;;;;;;4990949;28;20180;-74
2023/12/07 00:02:27;;;;;;;13.20;7.17;;;4.40;1.00;;;;;;4989394;28;20554;-75
2023/12/07 00:04:53;;;;;;;17.03;9.10;;;4.30;1.00;;;;;;4990131;28;20179;-77
2023/12/07 00:07:18;;;;;;;19.87;8.33;;;4.30;1.00;;;;;;4989947;28;20206;-74
2023/12/07 00:09:44;;;;;;;14.27;8.37;;;4.20;1.00;;;;;;4989860;28;20789;-74
2023/12/07 00:12:09;;;;;;;16.00;7.93;;;4.20;1.00;;;;;;4989142;28;20189;-76
2023/12/07 00:14:35;;;;;;;18.37;7.53;;;4.20;1.00;;;;;;4990385;28;20190;-74
2023/12/07 00:17:00;;;;;;;12.60;7.80;;;4.20;1.00;;;;;;4990058;28;20193;-75
2023/12/07 00:19:26;;;;;;;15.37;8.17;;;4.10;1.00;;;;;;4988339;28;20631;-75
2023/12/07 00:21:51;;;;;;;14.20;7.80;;;5.40;1.00;;;;;;4990470;28;20194;-75
2023/12/07 00:24:17;;;;;;;16.00;8.37;;;4.10;1.00;;;;;;4989045;28;20191;-74
2023/12/07 00:26:42;;;;;;;13.67;6.93;;;4.00;1.00;;;;;;4985294;28;20187;-75
2023/12/07 00:29:08;;;;;;;16.13;7.27;;;3.90;1.00;;;;;;4990144;28;20222;-75
2023/12/07 00:31:33;;;;;;;15.03;7.30;;;3.80;1.00;;;;;;4988969;28;20231;-74
2023/12/07 00:33:59;;;;;;;13.93;8.20;;;3.80;1.00;;;;;;4983144;28;20689;-76
2023/12/07 00:36:26;;;;;;;16.73;8.07;;;3.70;1.00;;;;;;4988738;28;20626;-75
2023/12/07 00:38:51;;;;;;;15.00;8.13;;;4.10;1.00;;;;;;4994302;28;20253;-74
2023/12/07 00:41:17;;;;;;;15.27;8.03;;;3.60;1.00;;;;;;4989530;28;20434;-76
2023/12/07 00:43:42;;;;;;;14.30;7.60;;;4.00;1.00;;;;;;4989496;28;20192;-75
2023/12/07 00:46:08;;;;;;;14.47;8.00;;;3.50;1.00;;;;;;4989689;28;20565;-75
2023/12/07 00:48:33;;;;;;;17.67;9.47;;;3.40;1.00;;;;;;4989295;28;20226;-74
2023/12/07 00:50:59;;;;;;;17.17;8.00;;;3.30;1.00;;;;;;4988611;28;20187;-75
2023/12/07 00:53:24;;;;;;;14.60;8.10;;;3.80;1.00;;;;;;4987800;28;20396;-75
2023/12/07 00:55:50;;;;;;;13.20;7.57;;;5.80;1.00;;;;;;4990194;28;20262;-74
2023/12/07 00:58:16;;;;;;;14.50;8.37;;;3.30;1.00;;;;;;4988835;28;20333;-76
2023/12/07 01:00:41;;;;;;;11.30;6.87;;;3.50;1.00;;;;;;4987907;28;20187;-74
2023/12/07 01:03:07;;;;;;;14.10;7.83;;;3.20;1.00;;;;;;4989948;28;20194;-75
2023/12/07 01:05:32;;;;;;;12.33;6.80;;;3.20;1.00;;;;;;4989592;28;20634;-75
2023/12/07 01:07:58;;;;;;;14.27;7.80;;;3.10;1.00;;;;;;4988531;28;20715;-74
2023/12/07 01:10:23;;;;;;;13.60;7.57;;;3.10;1.00;;;;;;4989406;28;20179;-75
2023/12/07 01:12:49;;;;;;;12.80;8.13;;;3.00;1.00;;;;;;4989559;28;20210;-75
2023/12/07 01:15:15;;;;;;;17.53;8.23;;;2.90;1.00;;;;;;4987309;28;20171;-74
2023/12/07 01:17:40;;;;;;;13.50;7.40;;;2.70;1.00;;;;;;4989553;28;20262;-74
2023/12/07 01:20:13;;;;;;;16.57;7.60;;;3.20;1.00;;;;;;4988457;28;20195;-74
2023/12/07 01:22:40;;;;;;;15.30;7.97;;;2.70;1.00;;;;;;4988854;28;20190;-74
2023/12/07 01:25:06;;;;;;;16.20;7.73;;;2.70;1.00;;;;;;4989738;28;20426;-74
2023/12/07 01:27:31;;;;;;;15.33;7.83;;;2.60;1.00;;;;;;4986542;28;20474;-74
2023/12/07 01:29:57;;;;;;;17.50;8.07;;;2.60;1.00;;;;;;4983380;28;20540;-76
2023/12/07 01:32:23;;;;;;;17.10;9.43;;;3.00;1.00;;;;;;4988792;28;20523;-74
2023/12/07 01:34:48;;;;;;;15.13;7.90;;;2.60;1.00;;;;;;4988160;28;20535;-75
2023/12/07 01:37:13;;;;;;;12.80;8.27;;;2.50;1.00;;;;;;4987117;28;20233;-74
2023/12/07 01:39:41;;;;;;;14.07;8.00;;;2.40;1.00;;;;;;4982732;28;20576;-74
2023/12/07 01:42:08;;;;;;;14.43;8.50;;;2.70;1.00;;;;;;4985934;28;20183;-74
2023/12/07 01:44:34;;;;;;;12.23;6.87;;;2.40;1.00;;;;;;4991194;28;20438;-74
2023/12/07 01:47:01;;;;;;;13.47;7.33;;;2.30;1.00;;;;;;4992729;28;20430;-75
2023/12/07 01:49:27;;;;;;;14.03;8.20;;;2.30;1.00;;;;;;4992750;28;20438;-76
2023/12/07 01:51:54;;;;;;;12.47;7.23;;;2.20;1.00;;;;;;4990831;28;20422;-74
2023/12/07 01:54:19;;;;;;;17.80;8.63;;;2.20;1.00;;;;;;4991800;28;20480;-73
2023/12/07 01:56:45;;;;;;;16.20;8.50;;;2.10;1.00;;;;;;4993301;28;20425;-74
2023/12/07 01:59:11;;;;;;;13.67;8.10;;;2.00;1.00;;;;;;4993129;28;20203;-74
2023/12/07 02:01:37;;;;;;;19.70;8.40;;;2.10;1.00;;;;;;4992525;28;20213;-72
2023/12/07 02:04:02;;;;;;;15.43;7.83;;;2.10;1.00;;;;;;4988906;28;20207;-74
2023/12/07 02:06:28;;;;;;;13.23;7.20;;;2.10;1.00;;;;;;4987269;28;20281;-75
2023/12/07 02:08:54;;;;;;;17.10;8.57;;;2.00;1.00;;;;;;4987458;28;20203;-74
2023/12/07 02:11:19;;;;;;;20.30;8.87;;;2.10;1.00;;;;;;4992759;28;20333;-74
2023/12/07 02:13:45;;;;;;;13.83;7.17;;;2.20;1.00;;;;;;4992386;28;20190;-74
2023/12/07 02:16:40;;;;;;;16.60;7.40;;;2.00;1.00;;;;;;4992578;28;20179;-74
2023/12/07 02:19:26;;;;;;;11.90;7.10;;;2.00;1.00;;;;;;4987814;28;20752;-75
2023/12/07 02:22:05;;;;;;;16.20;8.30;;;2.00;1.00;;;;;;4992481;28;20422;-73
2023/12/07 02:24:33;;;;;;;16.50;7.40;;;1.90;1.00;;;;;;4992312;28;20430;-73
2023/12/07 02:26:59;;;;;;;19.97;8.00;;;2.10;1.00;;;;;;4991766;28;20913;-74
2023/12/07 02:29:24;;;;;;;13.80;8.23;;;1.70;1.00;;;;;;4991101;28;20450;-72
2023/12/07 02:31:50;;;;;;;13.53;8.00;;;1.70;1.00;;;;;;4993378;28;20262;-75
2023/12/07 02:34:16;;;;;;;16.50;8.43;;;1.70;1.00;;;;;;4991136;28;20187;-75
2023/12/07 02:36:43;;;;;;;14.50;7.97;;;1.70;1.00;;;;;;4991518;28;20186;-74
2023/12/07 02:39:12;;;;;;;15.83;7.53;;;1.60;1.00;;;;;;4994052;28;20967;-73
2023/12/07 02:41:39;;;;;;;15.27;8.20;;;1.80;1.00;;;;;;4993153;28;20528;-73
2023/12/07 02:44:05;;;;;;;13.73;7.93;;;1.60;1.00;;;;;;4992346;28;20782;-74
2023/12/07 02:46:31;;;;;;;14.83;7.07;;;1.90;1.00;;;;;;4991863;28;20422;-73
2023/12/07 02:48:58;;;;;;;14.03;7.70;;;1.50;1.00;;;;;;4985151;28;20210;-75
2023/12/07 02:51:23;;;;;;;16.60;8.40;;;2.00;1.00;;;;;;4989835;28;20529;-74
2023/12/07 02:53:49;;;;;;;11.87;7.47;;;1.90;1.00;;;;;;4990645;28;20458;-74
2023/12/07 02:56:14;;;;;;;15.40;7.87;;;1.50;1.00;;;;;;4992028;28;20617;-74
2023/12/07 02:58:40;;;;;;;15.07;8.40;;;1.50;1.00;;;;;;4990293;28;20918;-74
2023/12/07 03:01:06;;;;;;;15.83;8.23;;;1.50;1.00;;;;;;4991933;28;20199;-74
2023/12/07 03:03:31;;;;;;;17.27;8.17;;;1.40;1.00;;;;;;4991356;28;20199;-76
2023/12/07 03:05:57;;;;;;;14.47;8.03;;;1.60;1.00;;;;;;4991792;28;20199;-74
2023/12/07 03:08:22;;;;;;;17.87;8.67;;;1.40;1.00;;;;;;4991085;28;20234;-74
2023/12/07 03:10:48;;;;;;;19.60;8.20;;;1.40;1.00;;;;;;4991472;28;20191;-75
2023/12/07 03:13:13;;;;;;;16.50;8.03;;;1.40;1.00;;;;;;4991195;28;20546;-74
2023/12/07 03:15:39;;;;;;;17.97;8.93;;;1.40;1.00;;;;;;4991304;28;20222;-74
2023/12/07 03:18:05;;;;;;;15.90;7.83;;;2.20;1.00;;;;;;4990587;28;20215;-74
2023/12/07 03:20:31;;;;;;;14.73;7.60;;;1.80;1.00;;;;;;4991167;28;20550;-71
2023/12/07 03:22:56;;;;;;;14.90;8.13;;;1.80;1.00;;;;;;4991474;28;20438;-76
2023/12/07 03:25:22;;;;;;;17.27;8.63;;;1.30;1.00;;;;;;4991364;28;20616;-74
2023/12/07 03:27:47;;;;;;;16.20;8.10;;;1.20;1.00;;;;;;4989387;28;20689;-73
2023/12/07 03:30:13;;;;;;;17.33;8.77;;;1.20;1.00;;;;;;4991577;28;20218;-74
2023/12/07 03:32:38;;;;;;;13.40;7.80;;;1.20;1.00;;;;;;4990340;28;20245;-76
2023/12/07 03:35:04;;;;;;;16.50;8.63;;;1.60;1.00;;;;;;4991623;28;20191;-74
2023/12/07 03:37:30;;;;;;;17.43;8.30;;;1.20;1.00;;;;;;4990631;28;20519;-72
2023/12/07 03:39:55;;;;;;;14.50;7.93;;;1.60;1.00;;;;;;4990917;28;20431;-74
2023/12/07 03:42:21;;;;;;;16.40;8.13;;;1.10;1.00;;;;;;4991275;28;20195;-74
2023/12/07 03:44:47;;;;;;;16.53;8.70;;;1.20;1.00;;;;;;4988747;28;20258;-74
2023/12/07 03:47:13;;;;;;;18.27;8.03;;;1.70;1.00;;;;;;4988977;28;20183;-75
2023/12/07 03:49:38;;;;;;;22.20;8.30;;;1.20;1.00;;;;;;4990862;28;20534;-74
2023/12/07 03:52:04;;;;;;;18.23;8.20;;;1.50;1.00;;;;;;4990707;28;20184;-75
2023/12/07 03:54:30;;;;;;;12.80;7.60;;;1.10;1.00;;;;;;4989448;28;20293;-74
2023/12/07 03:56:55;;;;;;;14.97;8.23;;;1.10;1.00;;;;;;4997658;28;20614;-75
2023/12/07 03:59:21;;;;;;;14.17;9.07;;;1.00;1.00;;;;;;4990460;28;20216;-75
2023/12/07 04:01:46;;;;;;;18.27;7.70;;;1.40;1.00;;;;;;4984879;28;20662;-74
2023/12/07 04:04:12;;;;;;;16.10;8.10;;;1.10;1.00;;;;;;4988227;28;20561;-76
2023/12/07 04:06:37;;;;;;;17.47;7.87;;;1.50;1.00;;;;;;4989546;28;20193;-74
2023/12/07 04:09:04;;;;;;;18.17;9.43;;;1.00;1.00;;;;;;4983813;28;20743;-75
2023/12/07 04:11:29;;;;;;;18.00;8.10;;;1.50;1.00;;;;;;4990623;28;20185;-75
2023/12/07 04:13:55;;;;;;;19.70;9.10;;;1.00;1.00;;;;;;4989801;28;20533;-75
2023/12/07 04:16:21;;;;;;;14.67;7.90;;;0.90;1.00;;;;;;4990404;28;20194;-74
2023/12/07 04:18:46;;;;;;;18.33;9.00;;;1.00;1.00;;;;;;4989698;28;20214;-74
2023/12/07 04:21:12;;;;;;;15.70;8.07;;;1.10;1.00;;;;;;4990474;28;20572;-75
2023/12/07 04:23:37;;;;;;;14.57;8.50;;;1.50;1.00;;;;;;4989426;28;20197;-74
2023/12/07 04:26:03;;;;;;;15.20;7.83;;;1.00;1.00;;;;;;4990149;28;20214;-74
2023/12/07 04:28:28;;;;;;;16.37;8.30;;;1.00;1.00;;;;;;4989985;28;20203;-74
2023/12/07 04:30:54;;;;;;;16.00;8.30;;;1.50;1.00;;;;;;4987737;28;20665;-74
2023/12/07 04:33:20;;;;;;;20.27;8.53;;;1.40;1.00;;;;;;4986326;28;20171;-75
2023/12/07 04:35:45;;;;;;;14.33;8.00;;;1.30;1.00;;;;;;4989781;28;20190;-74
2023/12/07 04:38:11;;;;;;;19.03;8.50;;;1.00;1.00;;;;;;4989940;28;20662;-74
2023/12/07 04:40:37;;;;;;;15.33;7.50;;;1.00;1.00;;;;;;4990808;28;20282;-76
2023/12/07 04:43:03;;;;;;;18.07;8.50;;;1.10;1.00;;;;;;4982954;28;20211;-74
2023/12/07 04:45:28;;;;;;;16.17;8.37;;;1.40;1.00;;;;;;4989781;28;20434;-76
2023/12/07 04:47:54;;;;;;;14.93;8.40;;;1.00;1.00;;;;;;4987717;28;20290;-74
2023/12/07 04:50:19;;;;;;;17.23;8.80;;;1.20;1.00;;;;;;4988553;28;20233;-74
2023/12/07 04:52:45;;;;;;;22.57;8.43;;;1.00;1.00;;;;;;4988922;28;20271;-74
2023/12/07 04:55:10;;;;;;;20.03;8.87;;;1.10;1.00;;;;;;4989808;28;20542;-74
2023/12/07 04:57:36;;;;;;;17.90;8.33;;;0.90;1.00;;;;;;4989595;28;20191;-73
2023/12/07 05:00:09;;;;;;;14.03;7.77;;;1.20;1.00;;;;;;4988544;28;20187;-74
2023/12/07 05:02:36;;;;;;;15.90;8.00;;;0.50;1.00;;;;;;4986534;28;20512;-75
2023/12/07 05:05:01;;;;;;;14.67;8.07;;;0.80;1.00;;;;;;4989244;28;20429;-75
2023/12/07 05:07:27;;;;;;;16.40;8.43;;;;;;;;;;4989391;28;20462;-75
2023/12/07 05:09:53;;;;;;;16.00;8.80;;;0.80;1.00;;;;;;4981214;28;20183;-74
2023/12/07 05:12:19;;;;;;;17.80;8.10;;;1.30;1.00;;;;;;4987946;28;20434;-75
2023/12/07 05:14:44;;;;;;;16.70;8.33;;;1.00;1.00;;;;;;4989491;28;20194;-74
2023/12/07 05:17:10;;;;;;;24.53;9.07;;;1.20;1.00;;;;;;4988985;28;20179;-76
2023/12/07 05:19:35;;;;;;;19.13;8.60;;;0.80;1.00;;;;;;4983351;28;20219;-74
2023/12/07 05:22:01;;;;;;;21.33;9.23;;;0.80;1.00;;;;;;4988522;28;20249;-74
2023/12/07 05:24:27;;;;;;;17.70;8.80;;;1.10;1.00;;;;;;4989577;28;20187;-74
2023/12/07 05:26:53;;;;;;;20.77;9.40;;;1.20;1.00;;;;;;4988830;28;20637;-74
2023/12/07 05:29:19;;;;;;;22.37;10.50;;;0.80;1.00;;;;;;4988835;28;20477;-74
2023/12/07 05:31:44;;;;;;;27.33;11.30;;;0.80;1.00;;;;;;4988720;28;20251;-75
2023/12/07 05:34:10;;;;;;;20.30;8.87;;;0.80;1.00;;;;;;4989533;28;20270;-74
2023/12/07 05:36:36;;;;;;;18.50;8.93;;;0.90;1.00;;;;;;4989602;28;20581;-74
2023/12/07 05:39:02;;;;;;;20.53;9.47;;;0.70;1.00;;;;;;4982110;28;20442;-74
2023/12/07 05:41:27;;;;;;;22.80;8.10;;;0.70;1.00;;;;;;4989550;28;20179;-75
2023/12/07 05:43:53;;;;;;;17.13;9.27;;;0.70;1.00;;;;;;4988666;28;20669;-76
2023/12/07 05:46:19;;;;;;;14.90;7.33;;;0.50;1.00;;;;;;4989457;28;20280;-74
2023/12/07 05:48:45;;;;;;;20.67;9.40;;;1.00;1.00;;;;;;4987750;28;20535;-74
2023/12/07 05:51:15;;;;;;;18.57;8.37;;;0.80;1.00;;;;;;4987167;28;20472;-74
2023/12/07 05:53:42;;;;;;;21.90;10.07;;;1.00;1.00;;;;;;4988842;28;20532;-72
2023/12/07 05:56:08;;;;;;;16.70;8.50;;;0.60;1.00;;;;;;4989070;28;20425;-74
2023/12/07 05:58:33;;;;;;;16.90;8.07;;;0.50;1.00;;;;;;4988134;28;20735;-76
2023/12/07 06:01:01;;;;;;;19.50;9.20;;;0.60;1.00;;;;;;4988877;28;20426;-75
2023/12/07 06:03:26;;;;;;;24.60;9.60;;;0.60;1.00;;;;;;4988810;28;20537;-75
2023/12/07 06:05:52;;;;;;;18.30;8.23;;;0.50;1.00;;;;;;4988963;28;20430;-74
2023/12/07 06:08:18;;;;;;;17.40;8.50;;;0.40;1.00;;;;;;4987930;28;20214;-74
2023/12/07 06:10:43;;;;;;;16.73;9.03;;;0.50;1.00;;;;;;4988559;28;20400;-72
2023/12/07 06:13:10;;;;;;;21.37;9.67;;;0.80;1.00;;;;;;5000116;28;20589;-74
2023/12/07 06:15:35;;;;;;;25.77;9.20;;;0.40;1.00;;;;;;4989074;28;20187;-74
2023/12/07 06:18:01;;;;;;;18.17;8.23;;;0.40;1.00;;;;;;4987184;28;20995;-74
2023/12/07 06:20:27;;;;;;;17.87;9.17;;;0.70;1.00;;;;;;4988496;28;20206;-76
2023/12/07 06:22:52;;;;;;;23.70;9.70;;;0.80;1.00;;;;;;4995562;28;20632;-74
2023/12/07 06:25:18;;;;;;;17.97;9.40;;;0.10;1.00;;;;;;4989186;28;20269;-73
2023/12/07 06:27:44;;;;;;;22.70;9.50;;;0.30;1.00;;;;;;4985026;28;20265;-74
2023/12/07 06:30:10;;;;;;;21.30;8.10;;;0.40;1.00;;;;;;4992212;28;20206;-74
2023/12/07 06:32:36;;;;;;;20.67;9.47;;;0.30;1.00;;;;;;4994691;28;20422;-74
2023/12/07 06:35:04;;;;;;;25.07;9.57;;;0.80;1.00;;;;;;4992908;28;20506;-74
2023/12/07 06:37:29;;;;;;;18.77;9.20;;;0.30;1.00;;;;;;4992509;28;20807;-74
2023/12/07 06:39:55;;;;;;;20.90;9.50;;;0.70;1.00;;;;;;4991290;28;20434;-75
2023/12/07 06:42:20;;;;;;;20.33;9.23;;;0.30;1.00;;;;;;4992806;28;20184;-74
2023/12/07 06:44:49;;;;;;;17.87;8.60;;;0.60;1.00;;;;;;4991363;28;20195;-72
2023/12/07 06:47:15;;;;;;;19.50;9.10;;;0.70;1.00;;;;;;4992518;28;20187;-74
2023/12/07 06:49:40;;;;;;;16.33;8.80;;;0.20;1.00;;;;;;4992363;28;20442;-74
2023/12/07 06:52:06;;;;;;;18.57;10.23;;;0.30;1.00;;;;;;4992061;28;20426;-77
2023/12/07 06:54:31;;;;;;;21.07;9.53;;;0.60;1.00;;;;;;4993021;28;20230;-74
2023/12/07 06:56:57;;;;;;;16.73;8.43;;;0.70;1.00;;;;;;4991058;28;20241;-75
2023/12/07 06:59:22;;;;;;;21.47;9.13;;;-0.10;1.00;;;;;;4992795;28;20217;-74
2023/12/07 07:01:48;;;;;;;19.87;8.47;;;0.20;1.00;;;;;;4992049;28;20286;-72
2023/12/07 07:04:14;;;;;;;22.10;8.53;;;0.20;1.00;;;;;;4992853;28;20673;-75
2023/12/07 07:06:42;;;;;;;22.30;8.77;;;0.60;1.00;;;;;;4991294;28;20562;-74
2023/12/07 07:09:08;;;;;;;16.87;8.60;;;0.30;1.00;;;;;;4992153;28;20222;-75
2023/12/07 07:11:34;;;;;;;14.87;7.63;;;0.40;1.00;;;;;;4991761;28;20517;-74
2023/12/07 07:14:00;;;;;;;26.70;8.27;;;0.40;1.00;;;;;;4992207;28;20207;-74
2023/12/07 07:16:26;;;;;;;24.13;10.00;;;0.60;1.00;;;;;;4991383;28;20179;-74
2023/12/07 07:18:51;;;;;;;23.73;8.97;;;0.80;1.00;;;;;;4991936;28;20477;-74
2023/12/07 07:21:17;;;;;;;24.30;10.57;;;0.60;1.00;;;;;;4992409;28;20660;-74
2023/12/07 07:23:42;;;;;;;21.50;9.40;;;0.30;1.00;;;;;;4991070;28;20558;-74
2023/12/07 07:26:08;;;;;;;23.90;9.77;;;1.30;1.00;;;;;;4989235;28;20184;-71
2023/12/07 07:28:34;;;;;;;22.40;10.37;;;1.00;1.00;;;;;;4991748;28;20211;-76
2023/12/07 07:31:00;;;;;;;21.30;10.67;;;1.40;1.00;;;;;;4989660;28;20179;-76
2023/12/07 07:33:25;;;;;;;23.57;10.90;;;1.60;1.00;;;;;;4992099;28;20427;-74
2023/12/07 07:35:51;;;;;;;32.50;12.37;;;1.20;1.00;;;;;;4991521;28;20466;-71
2023/12/07 07:40:48;;;;;;;24.90;10.67;;;1.50;1.00;;;;;;4997362;28;20563;-76
2023/12/07 07:43:14;;;;;;;30.90;11.70;;;1.60;1.00;;;;;;4994561;28;20837;-73
2023/12/07 07:45:39;;;;;;;23.50;10.60;;;1.70;1.00;;;;;;4991313;28;20422;-73
2023/12/07 07:48:05;;;;;;;21.30;9.73;;;1.80;1.00;;;;;;4991397;28;20217;-73
2023/12/07 07:50:30;;;;;;;18.47;9.10;;;1.90;1.00;;;;;;4990634;28;20611;-74
2023/12/07 07:52:56;;;;;;;18.53;8.70;;;1.80;1.00;;;;;;4984786;28;20186;-74
2023/12/07 07:55:22;;;;;;;21.27;9.07;;;2.00;1.00;;;;;;4988039;28;20183;-75
2023/12/07 07:57:47;;;;;;;15.73;7.80;;;2.00;1.00;;;;;;4989439;28;20625;-73
2023/12/07 08:00:13;;;;;;;17.97;8.30;;;2.30;1.00;;;;;;4990078;28;20249;-72
2023/12/07 08:02:39;;;;;;;19.03;8.50;;;2.20;1.00;;;;;;4991445;28;20245;-70
2023/12/07 08:05:05;;;;;;;20.33;9.50;;;2.60;1.00;;;;;;4989800;28;20442;-70
2023/12/07 08:07:30;;;;;;;24.07;9.17;;;2.40;1.00;;;;;;4989558;28;20209;-71
2023/12/07 08:09:56;;;;;;;17.30;9.00;;;2.60;1.00;;;;;;4989933;28;20301;-71
2023/12/07 08:12:24;;;;;;;20.10;10.13;;;2.50;1.00;;;;;;4991399;28;20183;-73
2023/12/07 08:14:50;;;;;;;24.53;9.57;;;2.60;1.00;;;;;;4990724;28;20179;-71
2023/12/07 08:17:15;;;;;;;21.17;10.10;;;2.60;1.00;;;;;;4991031;28;20469;-71
2023/12/07 08:19:44;;;;;;;21.50;9.63;;;2.60;1.00;;;;;;4990899;28;20689;-71
2023/12/07 08:22:10;;;;;;;20.50;8.57;;;2.70;1.00;;;;;;4989903;28;20250;-72
2023/12/07 08:24:38;;;;;;;18.03;8.20;;;2.70;1.00;;;;;;4990937;28;21037;-73
2023/12/07 08:27:03;;;;;;;16.93;8.73;;;2.80;1.00;;;;;;4988621;28;20438;-71
2023/12/07 08:29:29;;;;;;;19.20;7.80;;;2.80;1.00;;;;;;4988783;28;20565;-71
2023/12/07 08:31:54;;;;;;;16.03;7.63;;;2.80;1.00;;;;;;4990511;28;20218;-73
2023/12/07 08:34:20;;;;;;;18.33;8.27;;;2.90;1.00;;;;;;4990755;28;20277;-72
2023/12/07 08:36:46;;;;;;;17.87;8.13;;;2.90;1.00;;;;;;4990232;28;20187;-74
2023/12/07 08:39:11;;;;;;;20.23;8.70;;;2.90;1.00;;;;;;4988744;28;20210;-71
2023/12/07 08:41:37;;;;;;;19.67;8.03;;;2.90;1.00;;;;;;4990569;28;20191;-72
2023/12/07 08:44:03;;;;;;;21.60;8.27;;;3.30;1.00;;;;;;4989502;28;20262;-72
2023/12/07 08:46:29;;;;;;;15.50;7.13;;;3.00;1.00;;;;;;4988947;28;20553;-75
2023/12/07 08:48:56;;;;;;;20.53;8.90;;;3.10;1.00;;;;;;4989184;28;20496;-72
2023/12/07 08:51:21;;;;;;;22.57;8.30;;;3.10;1.00;;;;;;4990320;28;20526;-74
2023/12/07 08:53:47;;;;;;;19.10;8.60;;;3.30;1.00;;;;;;4989189;28;20433;-73
2023/12/07 08:56:13;;;;;;;15.80;7.90;;;3.30;1.00;;;;;;4990343;28;20194;-73
2023/12/07 08:58:39;;;;;;;16.70;7.13;;;3.20;1.00;;;;;;4990006;28;20697;-72
2023/12/07 09:01:05;;;;;;;17.80;7.10;;;3.20;1.00;;;;;;4988767;28;20203;-71
2023/12/07 09:03:31;;;;;;;17.93;7.23;;;3.20;1.00;;;;;;4989896;28;20528;-71
2023/12/07 09:05:58;;;;;;;15.50;7.00;;;3.60;1.00;;;;;;4989304;28;20512;-72
2023/12/07 09:08:23;;;;;;;18.20;7.33;;;3.30;1.00;;;;;;4988810;28;20481;-73
2023/12/07 09:10:51;;;;;;;16.63;7.60;;;3.20;1.00;;;;;;4988680;28;20445;-72
2023/12/07 09:13:17;;;;;;;15.77;7.10;;;3.40;1.00;;;;;;4988524;28;20194;-72
2023/12/07 09:15:42;;;;;;;17.70;8.23;;;3.40;1.00;;;;;;4988624;28;20996;-73
2023/12/07 09:18:08;;;;;;;18.60;9.17;;;3.30;1.00;;;;;;4989080;28;20533;-72
2023/12/07 09:20:33;;;;;;;23.97;7.47;;;3.40;1.00;;;;;;4989774;28;20238;-72
2023/12/07 09:22:59;;;;;;;18.60;7.73;;;3.90;1.00;;;;;;4990255;28;20197;-73
2023/12/07 09:25:27;;;;;;;17.60;7.17;;;4.10;1.00;;;;;;4989931;28;20237;-73
2023/12/07 09:27:53;;;;;;;14.43;7.03;;;3.90;1.00;;;;;;4987795;28;20220;-73
2023/12/07 09:30:18;;;;;;;15.90;7.20;;;4.20;1.00;;;;;;4988893;28;20821;-72
2023/12/07 09:32:44;;;;;;;16.80;6.87;;;3.90;1.00;;;;;;4984853;28;20194;-72
2023/12/07 09:35:19;;;;;;;16.50;7.10;;;4.00;1.00;;;;;;4989674;28;20186;-72
2023/12/07 09:37:50;;;;;;;16.17;7.43;;;4.10;1.00;;;;;;4990316;28;20266;-71
2023/12/07 09:40:20;;;;;;;14.00;7.30;;;4.20;1.00;;;;;;4987969;28;20497;-72
2023/12/07 09:42:47;;;;;;;14.30;7.50;;;4.40;1.00;;;;;;4987767;28;20496;-72
2023/12/07 09:45:18;;;;;;;15.90;7.70;;;4.50;1.00;;;;;;4988102;28;20422;-72
2023/12/07 09:47:49;;;;;;;15.33;7.33;;;4.60;1.00;;;;;;4988861;28;20570;-71
2023/12/07 09:50:21;;;;;;;18.83;7.83;;;4.80;1.00;;;;;;4989014;28;20464;-72
2023/12/07 09:52:49;;;;;;;16.30;7.23;;;5.40;1.00;;;;;;4988506;28;21068;-72
2023/12/07 09:55:16;;;;;;;15.63;6.97;;;6.50;1.00;;;;;;4987646;28;20845;-72
2023/12/07 09:57:42;;;;;;;16.47;8.40;;;7.30;1.00;;;;;;4988794;28;20434;-72
2023/12/07 10:00:10;;;;;;;14.60;8.20;;;8.80;1.00;;;;;;4987541;28;20467;-72
2023/12/07 10:02:38;;;;;;;16.37;8.37;;;10.10;1.00;;;;;;4989904;28;20274;-72
2023/12/07 10:05:13;;;;;;;14.20;8.07;;;11.60;1.00;;;;;;4992481;28;20484;-73
2023/12/07 10:07:41;;;;;;;16.75;9.02;;;13.30;1.00;;;;;;4990986;28;20436;-72
2023/12/07 10:10:06;;;;;;;17.27;9.83;;;16.40;1.00;;;;;;4992533;28;20290;-73
2023/12/07 10:12:35;;;;;;;20.17;10.20;;;15.70;1.00;;;;;;4988065;28;20522;-73
2023/12/07 10:15:21;;;;;;;17.53;9.57;;;16.60;1.00;;;;;;4993932;28;20210;-73
2023/12/07 10:17:51;;;;;;;20.63;11.90;;;17.00;1.00;;;;;;4989632;28;20545;-73
2023/12/07 10:20:18;;;;;;;18.80;10.33;;;17.20;1.00;;;;;;4992675;28;20481;-74
2023/12/07 10:22:46;;;;;;;18.70;11.13;;;17.90;1.00;;;;;;4991516;28;20854;-72
2023/12/07 10:25:12;;;;;;;18.80;10.20;;;18.70;1.00;;;;;;4992290;28;20477;-73
2023/12/07 10:27:40;;;;;;;19.93;10.23;;;20.20;1.00;;;;;;4992097;28;20468;-73
2023/12/07 10:30:09;;;;;;;20.70;11.07;;;20.20;1.00;;;;;;4993554;28;20480;-73
2023/12/07 10:32:39;;;;;;;21.40;11.23;;;20.60;1.00;;;;;;4984472;28;20513;-74
2023/12/07 10:35:09;;;;;;;21.67;11.47;;;20.70;1.00;;;;;;4991710;28;20481;-74
2023/12/07 10:37:34;;;;;;;18.33;10.40;;;21.00;1.00;;;;;;4990259;28;20495;-74
2023/12/07 10:40:00;;;;;;;18.43;10.43;;;21.70;1.00;;;;;;4993290;28;20465;-74
2023/12/07 10:42:28;;;;;;;21.80;12.13;;;22.30;1.00;;;;;;4993940;28;20218;-74
2023/12/07 10:44:57;;;;;;;15.93;9.90;;;22.40;1.00;;;;;;4993294;28;20241;-74
2023/12/07 10:47:23;;;;;;;15.67;10.10;;;22.00;1.00;;;;;;4991183;28;20430;-75
2023/12/07 10:49:54;;;;;;;17.13;9.77;;;22.30;1.00;;;;;;4991973;28;20461;-74
2023/12/07 10:52:23;;;;;;;18.57;10.07;;;22.30;1.00;;;;;;4993426;28;20280;-75
2023/12/07 10:55:11;;;;;;;20.50;10.77;;;22.50;1.00;;;;;;4995386;28;20429;-74
2023/12/07 10:57:37;;;;;;;18.77;11.57;;;23.20;1.00;;;;;;4993599;28;20427;-74
2023/12/07 11:00:03;;;;;;;18.90;10.70;;;23.20;1.00;;;;;;4994332;28;20809;-75
2023/12/07 11:02:30;;;;;;;20.20;11.23;;;;;;;;;;4993515;28;20430;-75
2023/12/07 11:04:57;;;;;;;17.60;11.00;;;23.00;1.00;;;;;;4992537;28;20581;-74
2023/12/07 11:07:27;;;;;;;18.07;11.10;;;23.70;1.00;;;;;;4992316;28;20465;-74
2023/12/07 11:10:00;;;;;;;18.77;10.17;;;24.00;1.00;;;;;;4994632;28;20521;-74
2023/12/07 11:12:34;;;;;;;16.10;10.40;;;24.20;1.00;;;;;;4991721;28;20430;-73
2023/12/07 11:15:01;;;;;;;20.10;12.30;;;24.50;1.00;;;;;;4993401;28;20434;-74
2023/12/07 11:17:27;;;;;;;19.83;11.37;;;24.70;1.00;;;;;;4994416;28;20995;-73
2023/12/07 11:19:52;;;;;;;19.13;11.10;;;23.30;1.00;;;;;;4993800;28;20445;-74
2023/12/07 11:22:22;;;;;;;21.83;11.90;;;22.00;1.00;;;;;;4992896;28;20214;-74
2023/12/07 11:24:58;;;;;;;19.53;10.67;;;20.30;1.00;;;;;;4993486;28;20240;-74
2023/12/07 11:27:24;;;;;;;18.17;11.17;;;19.40;1.00;;;;;;4989702;28;20548;-73
2023/12/07 11:29:50;;;;;;;19.80;12.23;;;19.40;1.00;;;;;;4991927;28;21110;-74
2023/12/07 11:32:16;;;;;;;21.67;11.53;;;19.40;1.00;;;;;;4992888;28;20935;-72
2023/12/07 11:34:43;;;;;;;17.70;11.20;;;19.20;1.00;;;;;;4993083;28;20425;-74
2023/12/07 11:37:11;;;;;;;19.60;11.10;;;18.70;1.00;;;;;;4992681;28;20194;-75
2023/12/07 11:39:46;;;;;;;18.53;11.27;;;18.80;1.00;;;;;;4990813;28;20532;-73
2023/12/07 11:42:15;;;;;;;24.20;10.93;;;19.30;1.00;;;;;;4988731;28;20449;-74
2023/12/07 11:44:43;;;;;;;19.77;11.50;;;18.70;1.00;;;;;;4985516;28;20430;-75
2023/12/07 11:47:09;;;;;;;19.77;11.00;;;18.60;1.00;;;;;;4991695;28;20434;-74
2023/12/07 11:49:35;;;;;;;18.33;11.23;;;19.90;1.00;;;;;;4990469;28;20474;-74
2023/12/07 11:52:11;;;;;;;23.47;12.27;;;20.30;1.00;;;;;;4993002;28;20430;-74
2023/12/07 11:54:37;;;;;;;22.13;12.30;;;20.00;1.00;;;;;;4991901;28;20432;-74
2023/12/07 11:57:03;;;;;;;18.17;11.30;;;19.70;1.00;;;;;;4991186;28;20430;-75
2023/12/07 11:59:29;;;;;;;19.80;11.70;;;20.10;1.00;;;;;;4991657;28;20215;-72
2023/12/07 12:01:54;;;;;;;22.50;11.73;;;19.70;1.00;;;;;;4993995;28;20430;-73
2023/12/07 12:04:21;;;;;;;20.97;10.23;;;19.80;1.00;;;;;;4993062;28;20190;-75
2023/12/07 12:06:47;;;;;;;19.40;11.47;;;19.90;1.00;;;;;;4994494;28;20191;-74
2023/12/07 12:09:17;;;;;;;19.27;11.33;;;19.60;1.00;;;;;;4992393;28;20636;-74
2023/12/07 12:11:47;;;;;;;19.60;12.00;;;19.30;1.00;;;;;;4994453;28;20191;-74
2023/12/07 12:14:16;;;;;;;22.00;11.90;;;18.30;1.00;;;;;;4995118;28;20530;-74
2023/12/07 12:16:42;;;;;;;21.23;11.00;;;16.60;1.00;;;;;;4996448;28;20418;-73
2023/12/07 12:19:08;;;;;;;21.07;12.23;;;16.20;1.00;;;;;;4995129;28;20453;-75
2023/12/07 12:21:35;;;;;;;23.20;11.70;;;16.80;1.00;;;;;;4994494;28;20488;-74
2023/12/07 12:24:01;;;;;;;20.80;11.90;;;;;;;;;;4993579;28;20446;-73
2023/12/07 12:26:28;;;;;;;25.20;12.00;;;19.20;1.00;;;;;;4991583;28;20618;-73
2023/12/07 12:28:54;;;;;;;20.57;11.93;;;19.80;1.00;;;;;;4993551;28;20226;-73
2023/12/07 12:31:20;;;;;;;18.97;11.40;;;18.90;1.00;;;;;;4993703;28;20430;-74
2023/12/07 12:33:47;;;;;;;21.73;12.30;;;18.40;1.00;;;;;;4990602;28;20290;-74
2023/12/07 12:36:12;;;;;;;23.33;12.03;;;18.30;1.00;;;;;;4994765;28;20437;-74
2023/12/07 12:38:39;;;;;;;23.17;12.50;;;16.60;1.00;;;;;;4991499;28;20458;-74
2023/12/07 12:41:04;;;;;;;22.07;12.57;;;15.00;1.00;;;;;;4991860;28;20190;-71
2023/12/07 12:43:31;;;;;;;20.27;11.33;;;13.30;1.00;;;;;;4991360;28;20561;-74
2023/12/07 12:45:57;;;;;;;20.93;10.93;;;11.10;1.00;;;;;;4991849;28;20542;-72
2023/12/07 12:48:23;;;;;;;20.47;10.73;;;10.30;1.00;;;;;;4992121;28;20462;-72
2023/12/07 12:50:49;;;;;;;18.20;10.60;;;10.20;1.00;;;;;;4994861;28;20423;-72